createdAt,value
2022-08-24T00:06:56.569Z,1.20
2022-08-24T00:17:20.378Z,1.00
2022-08-24T00:27:42.212Z,0.88
2022-08-24T00:38:03.950Z,1.17
2022-08-24T00:48:30.462Z,1.15
2022-08-24T00:58:57.487Z,1.17
2022-08-24T01:09:19.093Z,1.10
2022-08-24T01:19:47.676Z,1.33
2022-08-24T01:30:14.027Z,1.17
2022-08-24T01:40:44.061Z,1.30
2022-08-24T01:51:05.798Z,1.20
2022-08-24T02:01:30.483Z,1.30
2022-08-24T02:11:52.100Z,1.70
2022-08-24T02:22:13.643Z,1.45
2022-08-24T02:32:35.193Z,1.85
2022-08-24T02:42:56.758Z,1.90
2022-08-24T02:53:20.666Z,1.50
2022-08-24T03:03:42.210Z,1.70
2022-08-24T03:14:03.910Z,2.00
2022-08-24T03:24:25.595Z,1.30
2022-08-24T03:34:47.131Z,1.45
2022-08-24T03:45:09.944Z,1.85
2022-08-24T03:55:34.172Z,1.67
2022-08-24T04:05:55.668Z,1.40
2022-08-24T04:16:20.233Z,1.55
2022-08-24T04:26:45.003Z,1.45
2022-08-24T04:37:11.235Z,1.75
2022-08-24T04:47:33.005Z,1.90
2022-08-24T04:57:54.603Z,1.92
2022-08-24T05:08:20.218Z,2.20
2022-08-24T05:18:42.037Z,2.35
2022-08-24T05:29:03.876Z,2.25
2022-08-24T05:39:25.419Z,2.50
2022-08-24T05:49:48.002Z,2.72
2022-08-24T06:00:11.941Z,2.30
2022-08-24T06:10:43.461Z,2.20
2022-08-24T06:21:07.680Z,2.10
2022-08-24T06:31:39.342Z,2.05
2022-08-24T06:42:01.699Z,1.80
2022-08-24T06:52:26.740Z,1.80
2022-08-24T07:02:48.793Z,1.75
2022-08-24T07:13:11.500Z,1.80
2022-08-24T07:23:42.546Z,1.60
2022-08-24T07:34:07.092Z,1.95
2022-08-24T07:44:28.806Z,1.58
2022-08-24T07:54:50.338Z,1.50
2022-08-24T08:05:13.766Z,1.80
2022-08-24T08:15:35.389Z,1.70
2022-08-24T08:26:01.914Z,1.42
2022-08-24T08:36:23.618Z,1.55
2022-08-24T08:46:54.248Z,1.55
2022-08-24T08:57:38.122Z,1.80
2022-08-24T09:08:22.547Z,1.85
2022-08-24T09:19:03.763Z,1.60
2022-08-24T09:29:51.984Z,1.65
2022-08-24T09:40:38.269Z,1.73
2022-08-24T09:51:46.844Z,1.52
2022-08-24T10:02:27.241Z,1.80
2022-08-24T10:13:14.137Z,1.80
2022-08-24T10:24:03.493Z,2.05
2022-08-24T10:34:38.856Z,1.90
2022-08-24T10:45:07.572Z,1.73
2022-08-24T10:55:32.132Z,1.60
2022-08-24T11:05:55.767Z,1.55
2022-08-24T11:16:25.849Z,1.63
2022-08-24T11:26:55.212Z,1.70
2022-08-24T11:37:24.026Z,1.42
2022-08-24T11:48:12.358Z,1.40
2022-08-24T11:58:40.456Z,1.40
2022-08-24T12:09:46.847Z,1.40
2022-08-24T12:20:25.790Z,1.60
2022-08-24T12:30:47.813Z,1.55
2022-08-24T12:41:32.141Z,1.50
2022-08-24T12:52:05.926Z,1.48
2022-08-24T13:02:35.426Z,1.65
2022-08-24T13:13:08.450Z,1.50
2022-08-24T13:23:29.978Z,1.52
2022-08-24T13:34:00.781Z,1.58
2022-08-24T13:44:49.470Z,1.70
2022-08-24T13:55:29.809Z,1.40
2022-08-24T14:05:57.358Z,1.42
2022-08-24T14:16:53.336Z,1.60
2022-08-24T14:27:50.324Z,1.60
2022-08-24T14:38:23.944Z,1.60
2022-08-24T14:48:59.402Z,1.70
2022-08-24T14:59:56.283Z,1.55
2022-08-24T15:10:26.235Z,1.60
2022-08-24T15:21:00.887Z,1.30
2022-08-24T15:31:28.919Z,1.40
2022-08-24T15:41:50.651Z,1.20
2022-08-24T15:52:37.074Z,1.35
2022-08-24T16:03:19.634Z,1.70
2022-08-24T16:13:42.939Z,1.20
2022-08-24T16:24:23.037Z,1.50
2022-08-24T16:34:47.592Z,1.60
2022-08-24T16:45:11.166Z,1.50
2022-08-24T16:55:32.960Z,1.65
2022-08-24T17:05:55.932Z,1.50
2022-08-24T17:16:21.614Z,1.35
2022-08-24T17:26:44.955Z,1.35
2022-08-24T17:37:10.898Z,1.40
2022-08-24T17:47:33.728Z,1.60
2022-08-24T17:57:55.346Z,1.50
2022-08-24T18:08:17.012Z,2.28
2022-08-24T18:18:38.844Z,1.60
2022-08-24T18:29:10.200Z,1.60
2022-08-24T18:39:32.983Z,1.77
2022-08-24T18:49:55.011Z,2.30
2022-08-24T19:00:16.573Z,1.70
2022-08-24T19:10:38.349Z,2.00
2022-08-24T19:20:59.943Z,1.75
2022-08-24T19:31:23.751Z,1.80
2022-08-24T19:41:49.698Z,2.10
2022-08-24T19:52:11.560Z,1.85
2022-08-24T20:02:33.156Z,1.95
2022-08-24T20:12:54.882Z,2.13
2022-08-24T20:23:16.570Z,1.88
2022-08-24T20:33:38.534Z,2.00
2022-08-24T20:44:01.560Z,2.08
2022-08-24T20:54:23.197Z,1.80
2022-08-24T21:04:44.849Z,1.88
2022-08-24T21:15:06.833Z,1.70
2022-08-24T21:25:28.398Z,2.22
2022-08-24T21:35:50.068Z,1.85
2022-08-24T21:46:13.460Z,2.42
2022-08-24T21:56:35.162Z,1.92
2022-08-24T22:06:57.232Z,2.13
2022-08-24T22:17:18.838Z,1.73
2022-08-24T22:27:45.551Z,2.17
2022-08-24T22:38:07.847Z,1.92
2022-08-24T22:48:29.935Z,1.95
2022-08-24T22:58:52.349Z,2.03
2022-08-24T23:09:13.887Z,1.73
2022-08-24T23:19:54.099Z,1.88
2022-08-24T23:30:15.794Z,2.17
2022-08-24T23:40:41.153Z,2.20
2022-08-24T23:51:02.763Z,1.98
